sensor_id;sensor_type;location;lat;lon;timestamp;pressure;altitude;pressure_sealevel;temperature;humidity
70909;BME280;58554;52.006;5.926;2023-02-14T00:02:24;102654.25;;;3.04;82.41
70909;BME280;58554;52.006;5.926;2023-02-14T00:04:50;102656.84;;;3.04;82.70
70909;BME280;58554;52.006;5.926;2023-02-14T00:07:17;102657.75;;;3.03;82.46
70909;BME280;58554;52.006;5.926;2023-02-14T00:09:46;102655.13;;;3.01;82.32
70909;BME280;58554;52.006;5.926;2023-02-14T00:12:12;102659.47;;;3.01;82.60
70909;BME280;58554;52.006;5.926;2023-02-14T00:14:39;102655.13;;;2.98;82.72
70909;BME280;58554;52.006;5.926;2023-02-14T00:17:05;102652.47;;;2.97;82.74
70909;BME280;58554;52.006;5.926;2023-02-14T00:19:32;102652.47;;;2.97;82.75
70909;BME280;58554;52.006;5.926;2023-02-14T00:21:59;102649.84;;;2.95;82.66
70909;BME280;58554;52.006;5.926;2023-02-14T00:24:25;102642.88;;;2.93;82.88
70909;BME280;58554;52.006;5.926;2023-02-14T00:26:55;102643.75;;;2.92;82.73
70909;BME280;58554;52.006;5.926;2023-02-14T00:29:23;102646.38;;;2.90;82.84
70909;BME280;58554;52.006;5.926;2023-02-14T00:31:52;102653.31;;;2.88;83.05
70909;BME280;58554;52.006;5.926;2023-02-14T00:34:18;102645.44;;;2.85;83.03
70909;BME280;58554;52.006;5.926;2023-02-14T00:36:46;102648.06;;;2.82;82.84
70909;BME280;58554;52.006;5.926;2023-02-14T00:39:14;102648.91;;;2.81;82.94
70909;BME280;58554;52.006;5.926;2023-02-14T00:41:42;102641.09;;;2.79;83.09
70909;BME280;58554;52.006;5.926;2023-02-14T00:44:12;102634.97;;;2.77;83.09
70909;BME280;58554;52.006;5.926;2023-02-14T00:46:39;102639.31;;;2.78;83.29
70909;BME280;58554;52.006;5.926;2023-02-14T00:49:06;102650.63;;;2.79;83.37
70909;BME280;58554;52.006;5.926;2023-02-14T00:51:32;102641.94;;;2.78;83.28
70909;BME280;58554;52.006;5.926;2023-02-14T00:53:59;102642.81;;;2.77;83.22
70909;BME280;58554;52.006;5.926;2023-02-14T00:56:25;102636.72;;;2.75;83.29
70909;BME280;58554;52.006;5.926;2023-02-14T00:58:52;102639.31;;;2.74;83.16
70909;BME280;58554;52.006;5.926;2023-02-14T01:01:21;102641.91;;;2.72;83.29
70909;BME280;58554;52.006;5.926;2023-02-14T01:03:47;102638.41;;;2.70;83.36
70909;BME280;58554;52.006;5.926;2023-02-14T01:06:14;102644.50;;;2.69;83.42
70909;BME280;58554;52.006;5.926;2023-02-14T01:08:41;102640.13;;;2.67;83.29
70909;BME280;58554;52.006;5.926;2023-02-14T01:11:10;102639.22;;;2.64;83.42
70909;BME280;58554;52.006;5.926;2023-02-14T01:13:38;102644.47;;;2.61;83.36
70909;BME280;58554;52.006;5.926;2023-02-14T01:16:07;102640.13;;;2.60;83.60
70909;BME280;58554;52.006;5.926;2023-02-14T01:18:39;102647.06;;;2.60;83.47
70909;BME280;58554;52.006;5.926;2023-02-14T01:21:16;102635.72;;;2.58;83.41
70909;BME280;58554;52.006;5.926;2023-02-14T01:23:45;102640.06;;;2.57;83.34
70909;BME280;58554;52.006;5.926;2023-02-14T01:26:14;102635.72;;;2.58;83.65
70909;BME280;58554;52.006;5.926;2023-02-14T01:28:42;102635.72;;;2.55;83.49
70909;BME280;58554;52.006;5.926;2023-02-14T01:31:11;102640.06;;;2.54;83.62
70909;BME280;58554;52.006;5.926;2023-02-14T01:33:44;102635.69;;;2.52;83.72
70909;BME280;58554;52.006;5.926;2023-02-14T01:36:16;102640.06;;;2.53;83.81
70909;BME280;58554;52.006;5.926;2023-02-14T01:38:44;102635.72;;;2.55;84.11
70909;BME280;58554;52.006;5.926;2023-02-14T01:41:11;102639.22;;;2.57;84.04
70909;BME280;58554;52.006;5.926;2023-02-14T01:43:53;102636.59;;;2.60;83.95
70909;BME280;58554;52.006;5.926;2023-02-14T01:46:23;102634.88;;;2.62;84.14
70909;BME280;58554;52.006;5.926;2023-02-14T01:48:58;102637.53;;;2.65;84.52
70909;BME280;58554;52.006;5.926;2023-02-14T01:51:29;102632.28;;;2.67;84.40
70909;BME280;58554;52.006;5.926;2023-02-14T01:53:58;102640.13;;;2.65;84.15
70909;BME280;58554;52.006;5.926;2023-02-14T01:56:29;102636.63;;;2.63;84.23
70909;BME280;58554;52.006;5.926;2023-02-14T01:59:02;102636.63;;;2.61;83.98
70909;BME280;58554;52.006;5.926;2023-02-14T02:01:32;102629.66;;;2.59;84.08
70909;BME280;58554;52.006;5.926;2023-02-14T02:04:07;102629.66;;;2.60;84.19
70909;BME280;58554;52.006;5.926;2023-02-14T02:06:39;102628.78;;;2.61;84.01
70909;BME280;58554;52.006;5.926;2023-02-14T02:09:14;102626.16;;;2.60;84.13
70909;BME280;58554;52.006;5.926;2023-02-14T02:11:45;102629.66;;;2.59;84.19
70909;BME280;58554;52.006;5.926;2023-02-14T02:14:13;102620.94;;;2.58;83.98
70909;BME280;58554;52.006;5.926;2023-02-14T02:17:04;102624.44;;;2.59;83.94
70909;BME280;58554;52.006;5.926;2023-02-14T02:26:53;102613.97;;;2.59;84.21
70909;BME280;58554;52.006;5.926;2023-02-14T02:36:58;102601.72;;;2.52;84.17
70909;BME280;58554;52.006;5.926;2023-02-14T02:39:44;102606.09;;;2.53;84.26
70909;BME280;58554;52.006;5.926;2023-02-14T02:42:32;102602.63;;;2.52;84.26
70909;BME280;58554;52.006;5.926;2023-02-14T02:45:17;102607.84;;;2.52;84.46
70909;BME280;58554;52.006;5.926;2023-02-14T02:47:56;102608.72;;;2.51;84.09
70909;BME280;58554;52.006;5.926;2023-02-14T02:50:33;102600.84;;;2.50;84.32
70909;BME280;58554;52.006;5.926;2023-02-14T02:53:16;102606.06;;;2.50;84.42
70909;BME280;58554;52.006;5.926;2023-02-14T02:55:52;102610.44;;;2.54;84.74
70909;BME280;58554;52.006;5.926;2023-02-14T02:58:26;102613.97;;;2.57;84.61
70909;BME280;58554;52.006;5.926;2023-02-14T03:01:00;102610.50;;;2.57;84.55
70909;BME280;58554;52.006;5.926;2023-02-14T03:03:29;102607.84;;;2.55;84.30
70909;BME280;58554;52.006;5.926;2023-02-14T03:05:59;102610.47;;;2.52;84.21
70909;BME280;58554;52.006;5.926;2023-02-14T03:08:29;102602.59;;;2.48;83.99
70909;BME280;58554;52.006;5.926;2023-02-14T03:10:56;102605.19;;;2.44;84.02
70909;BME280;58554;52.006;5.926;2023-02-14T03:13:54;102609.50;;;2.41;84.11
70909;BME280;58554;52.006;5.926;2023-02-14T03:16:40;102595.56;;;2.39;84.17
70909;BME280;58554;52.006;5.926;2023-02-14T03:19:32;102605.13;;;2.35;84.12
70909;BME280;58554;52.006;5.926;2023-02-14T03:22:12;102599.88;;;2.32;84.01
70909;BME280;58554;52.006;5.926;2023-02-14T03:24:55;102600.72;;;2.28;84.19
70909;BME280;58554;52.006;5.926;2023-02-14T03:27:35;102594.63;;;2.26;83.99
70909;BME280;58554;52.006;5.926;2023-02-14T03:30:10;102592.91;;;2.25;84.24
70909;BME280;58554;52.006;5.926;2023-02-14T03:32:48;102595.50;;;2.25;84.41
70909;BME280;58554;52.006;5.926;2023-02-14T03:35:25;102592.88;;;2.23;84.34
70909;BME280;58554;52.006;5.926;2023-02-14T03:38:04;102596.34;;;2.24;84.21
70909;BME280;58554;52.006;5.926;2023-02-14T03:40:40;102595.47;;;2.22;84.29
70909;BME280;58554;52.006;5.926;2023-02-14T03:43:14;102591.09;;;2.19;84.31
70909;BME280;58554;52.006;5.926;2023-02-14T03:45:50;102590.22;;;2.17;84.35
70909;BME280;58554;52.006;5.926;2023-02-14T03:48:22;102590.22;;;2.16;84.20
70909;BME280;58554;52.006;5.926;2023-02-14T03:50:52;102599.75;;;2.14;84.19
70909;BME280;58554;52.006;5.926;2023-02-14T03:53:24;102601.47;;;2.12;84.20
70909;BME280;58554;52.006;5.926;2023-02-14T03:56:02;102597.13;;;2.09;84.30
70909;BME280;58554;52.006;5.926;2023-02-14T03:58:38;102601.47;;;2.09;84.17
70909;BME280;58554;52.006;5.926;2023-02-14T04:01:13;102595.34;;;2.08;84.17
70909;BME280;58554;52.006;5.926;2023-02-14T04:03:47;102593.63;;;2.07;84.36
70909;BME280;58554;52.006;5.926;2023-02-14T04:06:17;102596.25;;;2.07;84.36
70909;BME280;58554;52.006;5.926;2023-02-14T04:08:45;102594.47;;;2.04;84.38
70909;BME280;58554;52.006;5.926;2023-02-14T04:11:14;102597.94;;;2.03;84.26
70909;BME280;58554;52.006;5.926;2023-02-14T04:13:41;102597.91;;;2.02;84.13
70909;BME280;58554;52.006;5.926;2023-02-14T04:16:08;102597.91;;;1.99;84.39
70909;BME280;58554;52.006;5.926;2023-02-14T04:18:34;102596.13;;;1.95;84.03
70909;BME280;58554;52.006;5.926;2023-02-14T04:21:01;102595.22;;;1.91;84.00
70909;BME280;58554;52.006;5.926;2023-02-14T04:23:28;102598.69;;;1.87;84.14
70909;BME280;58554;52.006;5.926;2023-02-14T04:25:55;102591.72;;;1.84;83.83
70909;BME280;58554;52.006;5.926;2023-02-14T04:28:24;102602.97;;;1.80;83.91
70909;BME280;58554;52.006;5.926;2023-02-14T04:30:51;102600.34;;;1.79;83.92
70909;BME280;58554;52.006;5.926;2023-02-14T04:33:17;102605.56;;;1.77;84.06
70909;BME280;58554;52.006;5.926;2023-02-14T04:35:44;102600.34;;;1.76;84.05
70909;BME280;58554;52.006;5.926;2023-02-14T04:38:10;102604.69;;;1.75;84.23
70909;BME280;58554;52.006;5.926;2023-02-14T04:40:37;102596.84;;;1.74;84.20
70909;BME280;58554;52.006;5.926;2023-02-14T04:43:03;102599.41;;;1.72;84.08
70909;BME280;58554;52.006;5.926;2023-02-14T04:45:32;102597.69;;;1.71;84.12
70909;BME280;58554;52.006;5.926;2023-02-14T04:47:59;102593.31;;;1.70;84.18
70909;BME280;58554;52.006;5.926;2023-02-14T04:50:26;102594.19;;;1.72;84.66
70909;BME280;58554;52.006;5.926;2023-02-14T04:52:52;102594.22;;;1.74;84.48
70909;BME280;58554;52.006;5.926;2023-02-14T04:55:19;102586.41;;;1.74;84.41
70909;BME280;58554;52.006;5.926;2023-02-14T04:57:45;102581.16;;;1.71;84.62
70909;BME280;58554;52.006;5.926;2023-02-14T05:00:13;102579.41;;;1.70;84.34
70909;BME280;58554;52.006;5.926;2023-02-14T05:02:43;102581.16;;;1.72;84.46
70909;BME280;58554;52.006;5.926;2023-02-14T05:05:10;102578.56;;;1.74;84.85
70909;BME280;58554;52.006;5.926;2023-02-14T05:07:36;102577.72;;;1.76;85.26
70909;BME280;58554;52.006;5.926;2023-02-14T05:10:03;102569.94;;;1.79;85.07
70909;BME280;58554;52.006;5.926;2023-02-14T05:12:30;102573.44;;;1.81;84.80
70909;BME280;58554;52.006;5.926;2023-02-14T05:14:57;102561.25;;;1.82;85.22
70909;BME280;58554;52.006;5.926;2023-02-14T05:17:23;102568.22;;;1.84;85.11
70909;BME280;58554;52.006;5.926;2023-02-14T05:19:52;102567.38;;;1.86;85.02
70909;BME280;58554;52.006;5.926;2023-02-14T05:22:19;102566.53;;;1.88;85.22
70909;BME280;58554;52.006;5.926;2023-02-14T05:24:45;102558.69;;;1.88;85.02
70909;BME280;58554;52.006;5.926;2023-02-14T05:27:12;102550.88;;;1.88;85.34
70909;BME280;58554;52.006;5.926;2023-02-14T05:29:39;102556.13;;;1.93;85.15
70909;BME280;58554;52.006;5.926;2023-02-14T05:32:05;102555.28;;;1.94;85.52
70909;BME280;58554;52.006;5.926;2023-02-14T05:34:32;102564.84;;;1.96;85.27
70909;BME280;58554;52.006;5.926;2023-02-14T05:37:03;102560.53;;;1.98;85.63
70909;BME280;58554;52.006;5.926;2023-02-14T05:39:30;102566.63;;;2.00;85.68
70909;BME280;58554;52.006;5.926;2023-02-14T05:41:56;102564.00;;;2.00;85.49
70909;BME280;58554;52.006;5.926;2023-02-14T05:44:23;102565.72;;;2.00;85.55
70909;BME280;58554;52.006;5.926;2023-02-14T05:46:50;102573.56;;;2.01;85.22
70909;BME280;58554;52.006;5.926;2023-02-14T05:49:16;102576.19;;;2.01;85.20
70909;BME280;58554;52.006;5.926;2023-02-14T05:51:43;102572.69;;;2.01;85.19
70909;BME280;58554;52.006;5.926;2023-02-14T05:54:12;102568.34;;;2.01;85.18
70909;BME280;58554;52.006;5.926;2023-02-14T05:56:39;102567.50;;;2.02;85.27
70909;BME280;58554;52.006;5.926;2023-02-14T05:59:05;102572.72;;;2.02;85.68
70909;BME280;58554;52.006;5.926;2023-02-14T06:01:32;102575.34;;;2.02;85.25
70909;BME280;58554;52.006;5.926;2023-02-14T06:03:58;102570.97;;;2.01;85.06
70909;BME280;58554;52.006;5.926;2023-02-14T06:06:25;102570.06;;;1.99;85.24
70909;BME280;58554;52.006;5.926;2023-02-14T06:08:51;102566.59;;;1.99;85.38
70909;BME280;58554;52.006;5.926;2023-02-14T06:11:20;102572.69;;;1.99;85.07
70909;BME280;58554;52.006;5.926;2023-02-14T06:13:47;102569.22;;;1.99;85.16
70909;BME280;58554;52.006;5.926;2023-02-14T06:16:13;102569.22;;;1.99;85.53
70909;BME280;58554;52.006;5.926;2023-02-14T06:18:40;102563.97;;;1.97;85.54
70909;BME280;58554;52.006;5.926;2023-02-14T06:21:07;102568.34;;;1.98;85.30
70909;BME280;58554;52.006;5.926;2023-02-14T06:23:33;102571.81;;;1.97;85.38
70909;BME280;58554;52.006;5.926;2023-02-14T06:26:00;102573.53;;;1.97;85.22
70909;BME280;58554;52.006;5.926;2023-02-14T06:28:29;102570.06;;;1.96;85.30
70909;BME280;58554;52.006;5.926;2023-02-14T06:30:55;102570.91;;;1.95;85.13
70909;BME280;58554;52.006;5.926;2023-02-14T06:33:22;102572.66;;;1.95;85.09
70909;BME280;58554;52.006;5.926;2023-02-14T06:35:48;102574.41;;;1.94;85.06
70909;BME280;58554;52.006;5.926;2023-02-14T06:38:15;102571.78;;;1.93;84.92
70909;BME280;58554;52.006;5.926;2023-02-14T06:40:42;102574.38;;;1.91;84.84
70909;BME280;58554;52.006;5.926;2023-02-14T06:43:08;102570.88;;;1.91;84.87
70909;BME280;58554;52.006;5.926;2023-02-14T06:45:37;102569.13;;;1.87;84.75
70909;BME280;58554;52.006;5.926;2023-02-14T06:48:04;102578.66;;;1.84;84.59
70909;BME280;58554;52.006;5.926;2023-02-14T06:50:31;102569.94;;;1.81;84.54
70909;BME280;58554;52.006;5.926;2023-02-14T06:52:57;102575.97;;;1.74;84.74
70909;BME280;58554;52.006;5.926;2023-02-14T06:55:24;102572.41;;;1.64;84.75
70909;BME280;58554;52.006;5.926;2023-02-14T06:57:51;102574.97;;;1.56;84.65
70909;BME280;58554;52.006;5.926;2023-02-14T07:00:19;102578.34;;;1.46;84.45
70909;BME280;58554;52.006;5.926;2023-02-14T07:02:49;102579.13;;;1.39;84.56
70909;BME280;58554;52.006;5.926;2023-02-14T07:05:15;102582.53;;;1.32;84.47
70909;BME280;58554;52.006;5.926;2023-02-14T07:07:42;102581.59;;;1.25;84.44
70909;BME280;58554;52.006;5.926;2023-02-14T07:10:09;102588.47;;;1.20;84.64
70909;BME280;58554;52.006;5.926;2023-02-14T07:12:37;102593.66;;;1.18;84.71
70909;BME280;58554;52.006;5.926;2023-02-14T07:15:04;102589.31;;;1.17;84.86
70909;BME280;58554;52.006;5.926;2023-02-14T07:17:30;102592.78;;;1.18;84.93
70909;BME280;58554;52.006;5.926;2023-02-14T07:20:00;102588.47;;;1.20;85.13
70909;BME280;58554;52.006;5.926;2023-02-14T07:22:26;102597.22;;;1.23;85.08
70909;BME280;58554;52.006;5.926;2023-02-14T07:24:53;102594.63;;;1.27;85.17
70909;BME280;58554;52.006;5.926;2023-02-14T07:27:19;102592.03;;;1.27;85.28
70909;BME280;58554;52.006;5.926;2023-02-14T07:29:46;102596.41;;;1.29;85.23
70909;BME280;58554;52.006;5.926;2023-02-14T07:32:12;102595.56;;;1.32;85.29
70909;BME280;58554;52.006;5.926;2023-02-14T07:34:39;102590.38;;;1.35;85.52
70909;BME280;58554;52.006;5.926;2023-02-14T07:37:08;102593.88;;;1.37;85.55
70909;BME280;58554;52.006;5.926;2023-02-14T07:39:34;102596.50;;;1.38;85.42
70909;BME280;58554;52.006;5.926;2023-02-14T07:42:01;102597.38;;;1.40;85.31
70909;BME280;58554;52.006;5.926;2023-02-14T07:44:27;102604.34;;;1.41;85.42
70909;BME280;58554;52.006;5.926;2023-02-14T07:46:54;102606.13;;;1.44;85.33
70909;BME280;58554;52.006;5.926;2023-02-14T07:49:20;102602.69;;;1.51;85.54
70909;BME280;58554;52.006;5.926;2023-02-14T07:51:47;102605.41;;;1.62;85.68
70909;BME280;58554;52.006;5.926;2023-02-14T07:54:16;102596.78;;;1.71;85.59
70909;BME280;58554;52.006;5.926;2023-02-14T07:56:43;102597.75;;;1.77;85.75
70909;BME280;58554;52.006;5.926;2023-02-14T07:59:09;102600.34;;;1.79;85.72
70909;BME280;58554;52.006;5.926;2023-02-14T08:01:36;102602.13;;;1.83;85.99
70909;BME280;58554;52.006;5.926;2023-02-14T08:04:03;102595.25;;;1.90;86.11
70909;BME280;58554;52.006;5.926;2023-02-14T08:06:29;102592.69;;;1.99;86.22
70909;BME280;58554;52.006;5.926;2023-02-14T08:08:56;102594.50;;;2.09;86.27
70909;BME280;58554;52.006;5.926;2023-02-14T08:11:25;102593.69;;;2.16;86.25
70909;BME280;58554;52.006;5.926;2023-02-14T08:13:52;102598.06;;;2.22;86.36
70909;BME280;58554;52.006;5.926;2023-02-14T08:16:18;102592.91;;;2.31;86.30
70909;BME280;58554;52.006;5.926;2023-02-14T08:18:45;102590.38;;;2.45;86.46
70909;BME280;58554;52.006;5.926;2023-02-14T08:21:11;102593.94;;;2.58;86.38
70909;BME280;58554;52.006;5.926;2023-02-14T08:23:38;102593.09;;;2.67;86.33
70909;BME280;58554;52.006;5.926;2023-02-14T08:26:04;102587.94;;;2.76;86.69
70909;BME280;58554;52.006;5.926;2023-02-14T08:28:34;102598.44;;;2.91;86.83
70909;BME280;58554;52.006;5.926;2023-02-14T08:31:01;102590.66;;;3.05;86.75
70909;BME280;58554;52.006;5.926;2023-02-14T08:33:29;102581.13;;;3.13;86.60
70909;BME280;58554;52.006;5.926;2023-02-14T08:35:55;102586.34;;;3.13;86.24
70909;BME280;58554;52.006;5.926;2023-02-14T08:38:22;102586.34;;;3.13;86.24
70909;BME280;58554;52.006;5.926;2023-02-14T08:40:49;102586.31;;;3.12;86.14
70909;BME280;58554;52.006;5.926;2023-02-14T08:43:15;102592.44;;;3.09;86.29
70909;BME280;58554;52.006;5.926;2023-02-14T08:45:44;102587.19;;;3.09;86.32
70909;BME280;58554;52.006;5.926;2023-02-14T08:48:11;102592.41;;;3.08;85.98
70909;BME280;58554;52.006;5.926;2023-02-14T08:50:39;102593.28;;;3.10;86.23
70909;BME280;58554;52.006;5.926;2023-02-14T08:53:07;102588.94;;;3.09;86.05
70909;BME280;58554;52.006;5.926;2023-02-14T08:55:35;102583.69;;;3.10;86.13
70909;BME280;58554;52.006;5.926;2023-02-14T08:58:02;102582.84;;;3.11;85.95
70909;BME280;58554;52.006;5.926;2023-02-14T09:00:30;102582.84;;;3.14;86.10
70909;BME280;58554;52.006;5.926;2023-02-14T09:03:00;102588.09;;;3.20;86.07
70909;BME280;58554;52.006;5.926;2023-02-14T09:05:27;102582.88;;;3.23;86.13
70909;BME280;58554;52.006;5.926;2023-02-14T09:07:54;102586.38;;;3.29;85.93
70909;BME280;58554;52.006;5.926;2023-02-14T09:10:21;102587.25;;;3.35;85.91
70909;BME280;58554;52.006;5.926;2023-02-14T09:12:48;102585.53;;;3.42;85.95
70909;BME280;58554;52.006;5.926;2023-02-14T09:15:14;102586.41;;;3.49;85.87
70909;BME280;58554;52.006;5.926;2023-02-14T09:17:41;102579.44;;;3.54;86.08
70909;BME280;58554;52.006;5.926;2023-02-14T09:20:12;102575.97;;;3.59;85.92
70909;BME280;58554;52.006;5.926;2023-02-14T09:22:40;102588.19;;;3.65;86.00
70909;BME280;58554;52.006;5.926;2023-02-14T09:25:07;102582.06;;;3.71;85.81
70909;BME280;58554;52.006;5.926;2023-02-14T09:27:33;102575.97;;;3.75;85.92
70909;BME280;58554;52.006;5.926;2023-02-14T09:30:00;102575.09;;;3.80;85.67
70909;BME280;58554;52.006;5.926;2023-02-14T09:32:27;102578.59;;;3.85;85.51
70909;BME280;58554;52.006;5.926;2023-02-14T09:34:54;102574.22;;;3.92;85.60
70909;BME280;58554;52.006;5.926;2023-02-14T09:37:23;102569.84;;;3.97;85.60
70909;BME280;58554;52.006;5.926;2023-02-14T09:39:49;102566.38;;;4.03;85.57
70909;BME280;58554;52.006;5.926;2023-02-14T09:42:35;102563.75;;;4.11;85.19
70909;BME280;58554;52.006;5.926;2023-02-14T09:45:11;102574.22;;;4.17;85.19
70909;BME280;58554;52.006;5.926;2023-02-14T09:47:44;102568.97;;;4.23;84.99
70909;BME280;58554;52.006;5.926;2023-02-14T09:50:18;102573.28;;;4.28;85.13
70909;BME280;58554;52.006;5.926;2023-02-14T09:52:55;102564.56;;;4.34;84.99
70909;BME280;58554;52.006;5.926;2023-02-14T09:55:26;102566.31;;;4.40;85.10
70909;BME280;58554;52.006;5.926;2023-02-14T09:58:05;102566.28;;;4.46;84.88
70909;BME280;58554;52.006;5.926;2023-02-14T10:00:44;102566.28;;;4.51;84.75
70909;BME280;58554;52.006;5.926;2023-02-14T10:03:32;102572.38;;;4.59;84.95
70909;BME280;58554;52.006;5.926;2023-02-14T10:06:23;102567.97;;;4.67;84.66
70909;BME280;58554;52.006;5.926;2023-02-14T10:09:12;102564.44;;;4.76;84.70
70909;BME280;58554;52.006;5.926;2023-02-14T10:11:50;102562.66;;;4.85;84.52
70909;BME280;58554;52.006;5.926;2023-02-14T10:14:21;102557.34;;;4.93;84.55
70909;BME280;58554;52.006;5.926;2023-02-14T10:16:54;102562.59;;;5.01;84.39
70909;BME280;58554;52.006;5.926;2023-02-14T10:19:27;102560.81;;;5.09;84.09
70909;BME280;58554;52.006;5.926;2023-02-14T10:22:02;102555.53;;;5.14;83.99
70909;BME280;58554;52.006;5.926;2023-02-14T10:24:37;102549.38;;;5.21;83.99
70909;BME280;58554;52.006;5.926;2023-02-14T10:27:24;102553.69;;;5.28;83.94
70909;BME280;58554;52.006;5.926;2023-02-14T10:29:57;102547.50;;;5.37;83.68
70909;BME280;58554;52.006;5.926;2023-02-14T10:32:39;102546.59;;;5.44;83.86
70909;BME280;58554;52.006;5.926;2023-02-14T10:35:17;102540.41;;;5.54;83.64
70909;BME280;58554;52.006;5.926;2023-02-14T10:38:00;102559.56;;;5.64;83.48
70909;BME280;58554;52.006;5.926;2023-02-14T10:40:49;102556.88;;;5.72;83.33
70909;BME280;58554;52.006;5.926;2023-02-14T10:43:49;102555.06;;;5.81;83.17
70909;BME280;58554;52.006;5.926;2023-02-14T10:46:35;102551.47;;;5.90;83.10
70909;BME280;58554;52.006;5.926;2023-02-14T10:49:24;102554.88;;;6.00;83.08
70909;BME280;58554;52.006;5.926;2023-02-14T10:52:07;102555.66;;;6.09;82.61
70909;BME280;58554;52.006;5.926;2023-02-14T10:54:45;102545.09;;;6.17;82.60
70909;BME280;58554;52.006;5.926;2023-02-14T10:57:24;102547.59;;;6.26;82.14
70909;BME280;58554;52.006;5.926;2023-02-14T11:00:00;102543.13;;;6.33;82.11
70909;BME280;58554;52.006;5.926;2023-02-14T11:02:32;102541.34;;;6.38;81.82
70909;BME280;58554;52.006;5.926;2023-02-14T11:05:03;102538.59;;;6.47;81.10
70909;BME280;58554;52.006;5.926;2023-02-14T11:07:31;102536.75;;;6.57;81.64
70909;BME280;58554;52.006;5.926;2023-02-14T11:09:57;102534.03;;;6.63;81.82
70909;BME280;58554;52.006;5.926;2023-02-14T11:12:38;102528.69;;;6.71;82.00
70909;BME280;58554;52.006;5.926;2023-02-14T11:15:20;102526.78;;;6.82;80.71
70909;BME280;58554;52.006;5.926;2023-02-14T11:18:08;102523.16;;;6.91;81.05
70909;BME280;58554;52.006;5.926;2023-02-14T11:20:42;102525.69;;;6.99;80.98
70909;BME280;58554;52.006;5.926;2023-02-14T11:23:19;102524.69;;;7.06;80.48
70909;BME280;58554;52.006;5.926;2023-02-14T11:25:50;102521.13;;;7.10;80.79
70909;BME280;58554;52.006;5.926;2023-02-14T11:28:23;102519.31;;;7.15;80.63
70909;BME280;58554;52.006;5.926;2023-02-14T11:30:50;102511.34;;;7.20;80.14
70909;BME280;58554;52.006;5.926;2023-02-14T11:33:34;102508.63;;;7.27;80.28
70909;BME280;58554;52.006;5.926;2023-02-14T11:36:09;102514.66;;;7.31;79.71
70909;BME280;58554;52.006;5.926;2023-02-14T11:38:39;102507.59;;;7.35;79.87
70909;BME280;58554;52.006;5.926;2023-02-14T11:41:10;102504.03;;;7.40;79.94
70909;BME280;58554;52.006;5.926;2023-02-14T11:43:43;102494.28;;;7.47;80.07
70909;BME280;58554;52.006;5.926;2023-02-14T11:46:17;102495.03;;;7.54;80.12
70909;BME280;58554;52.006;5.926;2023-02-14T11:48:59;102497.50;;;7.64;79.56
70909;BME280;58554;52.006;5.926;2023-02-14T11:51:29;102490.28;;;7.77;78.97
70909;BME280;58554;52.006;5.926;2023-02-14T11:54:00;102489.06;;;7.94;79.22
70909;BME280;58554;52.006;5.926;2023-02-14T11:56:45;102493.09;;;8.15;79.11
70909;BME280;58554;52.006;5.926;2023-02-14T11:59:27;102483.88;;;8.36;78.82
70909;BME280;58554;52.006;5.926;2023-02-14T12:01:59;102478.25;;;8.52;78.55
70909;BME280;58554;52.006;5.926;2023-02-14T12:04:32;102474.41;;;8.67;78.55
70909;BME280;58554;52.006;5.926;2023-02-14T12:07:16;102464.47;;;8.80;78.82
70909;BME280;58554;52.006;5.926;2023-02-14T12:09:46;102462.34;;;8.96;79.42
70909;BME280;58554;52.006;5.926;2023-02-14T12:12:29;102459.69;;;9.69;81.33
70909;BME280;58554;52.006;5.926;2023-02-14T12:15:20;102451.66;;;10.94;83.26
70909;BME280;58554;52.006;5.926;2023-02-14T12:17:54;102440.84;;;12.04;82.54
70909;BME280;58554;52.006;5.926;2023-02-14T12:20:36;102440.84;;;13.19;78.76
70909;BME280;58554;52.006;5.926;2023-02-14T12:23:15;102429.38;;;14.01;77.01
70909;BME280;58554;52.006;5.926;2023-02-14T12:25:55;102422.25;;;14.77;74.97
70909;BME280;58554;52.006;5.926;2023-02-14T12:28:30;102424.38;;;15.59;76.00
70909;BME280;58554;52.006;5.926;2023-02-14T12:31:11;102420.72;;;16.44;74.58
70909;BME280;58554;52.006;5.926;2023-02-14T12:33:39;102406.72;;;17.33;73.87
70909;BME280;58554;52.006;5.926;2023-02-14T12:36:12;102409.31;;;18.08;66.70
70909;BME280;58554;52.006;5.926;2023-02-14T12:38:52;102409.34;;;18.49;67.59
70909;BME280;58554;52.006;5.926;2023-02-14T12:41:37;102399.38;;;18.93;64.17
70909;BME280;58554;52.006;5.926;2023-02-14T12:44:21;102396.47;;;19.49;64.80
70909;BME280;58554;52.006;5.926;2023-02-14T12:47:15;102385.94;;;20.10;62.57
70909;BME280;58554;52.006;5.926;2023-02-14T12:50:08;102386.97;;;20.70;61.68
70909;BME280;58554;52.006;5.926;2023-02-14T12:53:24;102380.56;;;21.19;58.21
70909;BME280;58554;52.006;5.926;2023-02-14T12:56:15;102384.44;;;21.73;60.90
70909;BME280;58554;52.006;5.926;2023-02-14T12:59:01;102371.38;;;22.13;58.90
70909;BME280;58554;52.006;5.926;2023-02-14T13:01:58;102361.63;;;22.44;52.12
70909;BME280;58554;52.006;5.926;2023-02-14T13:05:00;102351.81;;;22.55;56.96
70909;BME280;58554;52.006;5.926;2023-02-14T13:07:57;102359.06;;;22.87;54.45
70909;BME280;58554;52.006;5.926;2023-02-14T13:10:46;102345.84;;;23.26;53.04
70909;BME280;58554;52.006;5.926;2023-02-14T13:13:26;102344.31;;;23.54;51.79
70909;BME280;58554;52.006;5.926;2023-02-14T13:16:09;102341.00;;;23.81;51.63
70909;BME280;58554;52.006;5.926;2023-02-14T13:18:48;102334.41;;;24.04;48.89
70909;BME280;58554;52.006;5.926;2023-02-14T13:21:24;102328.84;;;23.96;49.83
70909;BME280;58554;52.006;5.926;2023-02-14T13:23:56;102328.13;;;24.04;48.01
70909;BME280;58554;52.006;5.926;2023-02-14T13:26:39;102328.94;;;23.85;47.33
70909;BME280;58554;52.006;5.926;2023-02-14T13:29:10;102327.16;;;23.64;45.45
70909;BME280;58554;52.006;5.926;2023-02-14T13:31:41;102323.63;;;23.43;45.96
70909;BME280;58554;52.006;5.926;2023-02-14T13:34:23;102316.97;;;23.47;42.56
70909;BME280;58554;52.006;5.926;2023-02-14T13:36:56;102311.56;;;23.47;46.21
70909;BME280;58554;52.006;5.926;2023-02-14T13:39:30;102310.59;;;23.48;44.50
70909;BME280;58554;52.006;5.926;2023-02-14T13:42:00;102307.06;;;23.27;45.69